Brashear, Texas
Current Conditions -  °F | °C
As of 7:15 AM on Thursday 18 Dec 2014 (Local Time) from KSLR Reporting Station
Overcast Overcast  
Wind Chill:   Ceiling: 500
Heat Index:   Visibility: 7mi
Dew Point:   Wind: 6mph
Humidity: 97%   Direction: 110°ESE
Pressure: 30.17"   Gusts: NA
Location:  33.12°N, 95.73°W
Report Text: KSLR 181315Z AUTO 11005KT 7SM BKN005 OVC010 06/05 A3017 RMK AO2 T00550050
Loading
Personal Weather Stations






























Interactive Weather Map New forecast layout! Learn more

10-Day Weather Forecast

Advertisements
Track Severe Weather on mobile